Airfield :
LOGIN :

Register | Disclaimer

   EN    FR    IT 

 










Legend :    VFR   Marginal VFR   IFR   Intensive IFR   Very Intensive IFR
Visi :
Ceiling :
>= 8 km
>= 3000ft
5 to 8 km
1000 to 3000 ft
1500m to 5 km
500 to 1000 ft
800 to 1500m
200 to 500 ft
< 800m
< 200 ft
Symbols :   Thunderstorms  Fog  Heavy snow  Heavy precipitations  Wind > 20 kt
SIGMETs :     Misc.  Thunderstorms  Icing  Turbulence  Mountain Waves  Volcanic Ashes







- Airport Elevation : 218 ft
- IATA code : LBG
- Download approach charts


LFPB - Paris / Le Bourget

CURRENT METAR :
  • 100100Z AUTO 24006KT 9999 -RA FEW015/// SCT040/// OVC054/// ///TCU 08/06 Q1024 TEMPO BKN014

EXPIRED METARs :
  • 100030Z AUTO 24006KT 9999 FEW031 BKN041 BKN062 07/06 Q1024 TEMPO BKN014
  • 100000Z AUTO 25006KT 9999 FEW036 SCT043 BKN052 07/06 Q1024 TEMPO BKN014
  • 092330Z AUTO 25007KT 9999 FEW037 SCT043 BKN052 08/06 Q1024 TEMPO BKN014
  • 092300Z AUTO 26007KT 9999 FEW030 SCT047 BKN054 08/06 Q1023 NOSIG
  • 092230Z AUTO 28007KT 250V310 9999 FEW033 SCT060 BKN070 09/05 Q1023 NOSIG

TAF AMD TAF LFPB
Valid from the 10 at 01:00 until the 11 at 00:00 UTC


100121Z 1001/1024 28010KT 9999 SCT030
PROB40
TEMPO 1001/1006 4500 -SHRA BKN014 SCT020TCU
PROB30
TEMPO 1010/1015 -SHRA BKN025
BECMG 1019/1021 VRB03KT
ATIS : +33 1 48 62 43 92
No reported NOTAMs for that airfield.



MET'MAP, your aeronautical weather chart ! - Copyright ORBIFLY December 2007 - Disclaimer

ORBIFLY MET'MAP TEAM :

Programming & Development : Alexandra Zaïnal
Concept & Development : Baudouin d'Aumeries
Co-Development & Prog : Marc-Olivier Méhu
Technical & hardware support : Manuel Goepfert

Contact : metmap@orbifly.com




SOURCES & CREDITS :

   NOAA